Carter Lake, Iowa
Current Conditions -  °F | °C
As of 1:52 PM on Thursday 23 Oct 2014 (Local Time) from KOMA Reporting Station
Clear Clear  
Wind Chill: 69°   Ceiling: Unl
Heat Index: 69°   Visibility: 10mi
Dew Point: 52°   Wind: 3mph
Humidity: 54%   Direction: 50°NE
Pressure: 30.04"   Gusts: NA
Location:  41.29°N, 95.92°W
Report Text: KOMA 231852Z 05003KT 10SM CLR 21/11 A3004 RMK AO2 SLP167 T02060111
Loading
Personal Weather Stations






























Interactive Weather Map
Tropical Storm Tracking
New forecast layout! Learn more

10-Day Weather Forecast

Advertisements
Track Severe Weather on mobile